Time;durP1;ratioP1;P1;durP2;ratioP2;P2;SDS_P1;SDS_P2;PMS_P1;PMS_P2;Temp;Humidity;BMP_temperature;BMP_pressure;BME280_temperature;BME280_humidity;BME280_pressure;Samples;Min_cycle;Max_cycle;Signal;HPM_P1;HPM_P2
2023/05/06 00:02:00;;;;;;;23.88;20.42;;;;;;;14.58;80.88;101681.09;7390562;19;20023;-55
2023/05/06 00:04:27;;;;;;;25.83;22.00;;;;;;;14.57;81.16;101676.69;7390332;19;20019;-54
2023/05/06 00:06:56;;;;;;;24.45;20.80;;;;;;;14.55;81.19;101678.66;7388392;19;20010;-53
2023/05/06 00:09:23;;;;;;;27.23;21.00;;;;;;;14.50;81.16;101672.81;7393411;19;20018;-54
2023/05/06 00:11:50;;;;;;;22.63;19.27;;;;;;;14.54;81.29;101676.94;7390220;19;20015;-53
2023/05/06 00:14:17;;;;;;;24.05;20.23;;;;;;;14.55;81.19;101672.47;7388631;19;20023;-54
2023/05/06 00:16:44;;;;;;;23.90;19.40;;;;;;;14.55;81.22;101673.31;7388240;19;20610;-52
2023/05/06 00:19:11;;;;;;;23.75;20.02;;;;;;;14.55;81.06;101673.31;7389466;19;20014;-53
2023/05/06 00:21:39;;;;;;;23.98;20.58;;;;;;;14.52;81.38;101678.03;7389645;19;20488;-54
2023/05/06 00:24:06;;;;;;;22.55;19.02;;;;;;;14.49;81.52;101672.88;7387946;19;20034;-52
2023/05/06 00:26:33;;;;;;;21.92;18.73;;;;;;;14.46;81.64;101668.66;7388124;19;20035;-54
2023/05/06 00:29:00;;;;;;;23.52;19.38;;;;;;;14.47;81.27;101681.00;7386500;19;20014;-52
2023/05/06 00:31:28;;;;;;;21.58;18.40;;;;;;;14.44;81.40;101675.91;7387023;19;20035;-52
2023/05/06 00:33:57;;;;;;;23.98;20.33;;;;;;;14.42;81.29;101676.97;7390649;19;20015;-53
2023/05/06 00:36:24;;;;;;;22.42;19.05;;;;;;;14.35;81.61;101677.44;7392499;19;20015;-53
2023/05/06 00:38:51;;;;;;;22.67;17.88;;;;;;;14.34;81.24;101688.22;7394039;19;20475;-54
2023/05/06 00:41:18;;;;;;;21.20;17.20;;;;;;;14.34;80.92;101681.06;7395222;19;20018;-54
2023/05/06 00:43:45;;;;;;;22.48;18.13;;;;;;;14.28;81.03;101689.53;7394959;19;20377;-51
2023/05/06 00:46:15;;;;;;;20.02;16.50;;;;;;;14.19;81.47;101687.53;7393943;19;20025;-53
2023/05/06 00:48:43;;;;;;;19.60;15.82;;;;;;;14.22;81.17;101691.78;7395727;19;20024;-50
2023/05/06 00:51:11;;;;;;;18.75;15.38;;;;;;;14.21;81.09;101692.75;7395672;19;20015;-52
2023/05/06 00:53:39;;;;;;;18.77;15.38;;;;;;;14.18;80.95;101691.16;7395462;19;20040;-52
2023/05/06 00:56:06;;;;;;;19.48;14.95;;;;;;;14.18;80.66;101687.66;7392806;19;20024;-53
2023/05/06 00:58:34;;;;;;;17.30;14.23;;;;;;;14.21;80.40;101693.59;7394698;19;20015;-53
2023/05/06 01:01:01;;;;;;;18.35;14.60;;;;;;;14.24;80.27;101690.72;7395667;19;20503;-53
2023/05/06 01:03:30;;;;;;;17.25;14.07;;;;;;;14.18;80.31;101693.81;7396200;19;20022;-52
2023/05/06 01:06:10;;;;;;;18.27;14.65;;;;;;;14.25;80.38;101692.41;7394102;19;20015;-53
2023/05/06 01:08:53;;;;;;;19.10;15.23;;;;;;;14.22;80.51;101695.31;7395621;19;20030;-51
2023/05/06 01:11:45;;;;;;;21.25;16.42;;;;;;;14.27;80.80;101692.28;7395048;19;20018;-50
2023/05/06 01:14:34;;;;;;;24.33;16.90;;;;;;;14.26;80.65;101691.44;7396084;19;20031;-48
2023/05/06 01:17:09;;;;;;;25.08;18.55;;;;;;;14.25;80.68;101687.09;7388572;19;20027;-50
2023/05/06 01:20:05;;;;;;;25.88;19.83;;;;;;;14.26;80.87;101694.09;7393440;19;20035;-52
2023/05/06 01:22:35;;;;;;;28.27;20.70;;;;;;;14.17;81.20;101689.47;7395149;19;20499;-52
2023/05/06 01:25:03;;;;;;;26.20;20.60;;;;;;;14.15;81.34;101697.56;7393137;19;20023;-52
2023/05/06 01:27:30;;;;;;;30.98;21.33;;;;;;;14.17;81.03;101696.63;7391559;19;20040;-53
2023/05/06 01:29:58;;;;;;;31.75;22.88;;;;;;;13.98;81.49;101705.09;7393305;19;20043;-52
2023/05/06 01:32:25;;;;;;;31.95;21.52;;;;;;;13.92;81.41;101700.22;7393122;19;20010;-54
2023/05/06 01:35:06;;;;;;;30.10;20.45;;;;;;;13.93;81.34;101702.78;7392196;19;20022;-51
2023/05/06 01:37:54;;;;;;;30.83;19.73;;;;;;;13.95;80.90;101708.84;7394755;19;20087;-52
2023/05/06 01:40:25;;;;;;;21.88;14.80;;;;;;;13.94;80.72;101703.63;7394770;19;20388;-49
2023/05/06 01:42:53;;;;;;;14.77;9.20;;;;;;;13.83;80.07;101704.41;7390893;19;20021;-52
2023/05/06 01:45:25;;;;;;;14.38;9.23;;;;;;;13.74;79.95;101715.72;7391840;19;20022;-52
2023/05/06 01:47:52;;;;;;;14.18;9.05;;;;;;;13.76;80.02;101719.97;7394109;19;20018;-52
2023/05/06 01:50:19;;;;;;;14.00;9.73;;;;;;;13.77;79.48;101723.47;7390222;19;20039;-52
2023/05/06 01:52:57;;;;;;;13.38;8.70;;;;;;;13.75;79.51;101722.75;7392310;19;20018;-53
2023/05/06 01:55:24;;;;;;;13.65;8.35;;;;;;;13.68;79.46;101724.13;7392749;19;20028;-53
2023/05/06 01:57:51;;;;;;;14.68;8.48;;;;;;;13.67;79.42;101717.13;7392501;19;20532;-52
2023/05/06 02:00:19;;;;;;;14.13;8.23;;;;;;;13.67;79.27;101723.28;7393454;19;20605;-53
2023/05/06 02:02:46;;;;;;;13.95;7.53;;;;;;;13.64;79.33;101731.50;7394468;19;20018;-50
2023/05/06 02:05:13;;;;;;;13.35;7.38;;;;;;;13.63;79.09;101727.97;7391126;19;20487;-53
2023/05/06 02:07:40;;;;;;;11.27;7.38;;;;;;;13.53;78.94;101723.41;7394458;19;20378;-50
2023/05/06 02:10:08;;;;;;;12.88;7.40;;;;;;;13.57;79.17;101723.06;7390794;19;20021;-52
2023/05/06 02:12:35;;;;;;;13.98;6.82;;;;;;;13.60;78.87;101724.69;7391612;19;20015;-52
2023/05/06 02:15:03;;;;;;;12.57;7.97;;;;;;;13.59;78.88;101725.66;7390089;19;20122;-49
2023/05/06 02:17:30;;;;;;;12.15;7.43;;;;;;;13.58;79.24;101731.91;7393663;19;20622;-49
2023/05/06 02:19:58;;;;;;;11.90;7.50;;;;;;;13.56;78.52;101721.38;7393094;19;20019;-50
2023/05/06 02:22:25;;;;;;;13.38;7.95;;;;;;;13.48;78.96;101723.75;7393741;19;20015;-49
2023/05/06 02:24:52;;;;;;;11.35;7.72;;;;;;;13.47;78.66;101732.69;7392460;19;20101;-50
2023/05/06 02:27:19;;;;;;;16.73;8.65;;;;;;;13.43;78.45;101725.00;7393036;19;20546;-49
2023/05/06 02:29:46;;;;;;;12.57;7.80;;;;;;;13.37;78.56;101728.97;7390389;19;20019;-50
2023/05/06 02:32:13;;;;;;;12.63;7.53;;;;;;;13.38;78.70;101731.50;7392950;19;20018;-52
2023/05/06 02:34:40;;;;;;;16.60;6.97;;;;;;;13.47;78.67;101730.03;7392780;19;20025;-51
2023/05/06 02:37:07;;;;;;;15.35;7.25;;;;;;;13.37;78.48;101727.16;7392582;19;20029;-52
2023/05/06 02:39:34;;;;;;;11.65;6.90;;;;;;;13.36;78.53;101730.78;7391384;19;20014;-50
2023/05/06 02:42:01;;;;;;;11.65;6.55;;;;;;;13.32;78.55;101733.75;7392834;19;20018;-52
2023/05/06 02:44:28;;;;;;;16.13;8.23;;;;;;;13.11;79.26;101738.69;7392245;19;20510;-49
2023/05/06 02:46:55;;;;;;;12.80;7.10;;;;;;;13.24;78.70;101736.06;7389094;19;20022;-51
2023/05/06 02:49:22;;;;;;;12.93;7.72;;;;;;;13.27;79.09;101727.88;7392117;19;20048;-49
2023/05/06 02:51:49;;;;;;;9.98;6.20;;;;;;;13.37;78.62;101732.47;7391215;19;20053;-49
2023/05/06 02:54:16;;;;;;;13.02;7.43;;;;;;;13.37;78.67;101740.44;7392319;19;20379;-49
2023/05/06 02:56:45;;;;;;;13.00;7.65;;;;;;;13.28;78.87;101738.44;7389437;19;20019;-51
2023/05/06 02:59:12;;;;;;;13.85;7.30;;;;;;;13.31;78.77;101738.19;7389888;19;20044;-49
2023/05/06 03:01:39;;;;;;;13.32;7.75;;;;;;;13.32;78.71;101734.59;7392268;19;20104;-49
2023/05/06 03:04:06;;;;;;;13.18;7.63;;;;;;;13.38;78.26;101725.34;7392322;19;20014;-52
2023/05/06 03:06:33;;;;;;;12.23;6.82;;;;;;;13.31;78.30;101721.38;7389545;19;20764;-48
2023/05/06 03:09:00;;;;;;;13.23;7.32;;;;;;;13.21;78.77;101720.31;7387996;19;20015;-51
2023/05/06 03:11:30;;;;;;;13.77;7.80;;;;;;;13.08;79.09;101714.97;7390356;19;20018;-48
2023/05/06 03:13:57;;;;;;;13.48;7.88;;;;;;;13.03;79.31;101712.63;7390327;19;20015;-49
2023/05/06 03:16:24;;;;;;;12.32;7.40;;;;;;;13.06;78.86;101715.09;7389921;19;20018;-49
2023/05/06 03:18:51;;;;;;;12.35;8.07;;;;;;;13.04;79.21;101724.13;7390773;19;20014;-51
2023/05/06 03:21:18;;;;;;;12.43;7.75;;;;;;;13.02;78.94;101718.06;7391979;19;20017;-49
2023/05/06 03:23:45;;;;;;;12.82;7.13;;;;;;;12.94;79.13;101707.97;7389637;19;20019;-49
2023/05/06 03:26:12;;;;;;;14.63;7.55;;;;;;;12.89;79.06;101715.38;7387190;19;20447;-52
2023/05/06 03:28:42;;;;;;;13.43;7.63;;;;;;;12.73;79.80;101720.88;7390502;19;20014;-50
2023/05/06 03:31:09;;;;;;;13.93;7.20;;;;;;;12.78;79.67;101724.09;7390345;19;20025;-50
2023/05/06 03:33:36;;;;;;;14.25;7.82;;;;;;;12.79;79.76;101723.16;7388137;19;20015;-49
2023/05/06 03:36:03;;;;;;;17.67;7.90;;;;;;;12.82;79.61;101732.69;7387908;19;20439;-53
2023/05/06 03:38:30;;;;;;;14.55;7.88;;;;;;;12.84;79.49;101722.81;7389733;19;20015;-49
2023/05/06 03:40:57;;;;;;;14.68;7.38;;;;;;;12.92;79.02;101726.66;7390717;19;20018;-50
2023/05/06 03:43:24;;;;;;;17.40;8.40;;;;;;;12.84;79.35;101726.34;7389556;19;20018;-50
2023/05/06 03:45:51;;;;;;;15.18;7.82;;;;;;;12.87;79.27;101730.59;7384924;19;20386;-49
2023/05/06 03:48:18;;;;;;;15.70;8.23;;;;;;;12.90;78.76;101733.91;7389532;19;20027;-49
2023/05/06 03:50:46;;;;;;;18.60;8.20;;;;;;;12.87;78.98;101736.75;7385961;19;20019;-49
2023/05/06 03:53:13;;;;;;;16.52;7.95;;;;;;;12.83;79.00;101732.63;7388415;19;20015;-53
2023/05/06 03:55:40;;;;;;;17.95;8.68;;;;;;;12.82;78.83;101730.03;7390156;19;20203;-49
2023/05/06 03:58:07;;;;;;;22.45;9.25;;;;;;;12.85;78.84;101724.53;7391852;19;20002;-49
2023/05/06 04:00:34;;;;;;;18.13;8.40;;;;;;;12.87;78.54;101733.25;7389614;19;20022;-52
2023/05/06 04:03:01;;;;;;;16.35;8.00;;;;;;;12.94;78.46;101737.22;7391270;19;20007;-50
2023/05/06 04:05:28;;;;;;;16.83;8.45;;;;;;;12.87;78.80;101746.56;7389175;19;20026;-51
2023/05/06 04:07:55;;;;;;;15.55;8.43;;;;;;;12.84;78.68;101742.28;7391121;19;20039;-48
2023/05/06 04:10:22;;;;;;;18.98;8.55;;;;;;;12.81;78.36;101738.97;7396100;19;20043;-48
2023/05/06 04:12:49;;;;;;;17.45;8.75;;;;;;;12.82;78.75;101736.22;7395890;19;20010;-48
2023/05/06 04:15:16;;;;;;;16.77;8.38;;;;;;;12.80;78.90;101739.94;7396404;19;20018;-51
2023/05/06 04:17:44;;;;;;;20.42;9.23;;;;;;;12.79;79.05;101741.75;7397940;19;20339;-50
2023/05/06 04:20:11;;;;;;;18.65;9.93;;;;;;;12.79;78.89;101743.56;7397031;19;20022;-50
2023/05/06 04:22:38;;;;;;;18.13;9.10;;;;;;;12.84;78.50;101747.59;7397898;19;20014;-49
2023/05/06 04:25:06;;;;;;;17.13;8.85;;;;;;;12.72;79.42;101747.59;7396018;19;20018;-53
2023/05/06 04:27:33;;;;;;;18.15;8.90;;;;;;;12.69;79.65;101756.59;7395332;19;20039;-52
2023/05/06 04:30:00;;;;;;;19.52;9.10;;;;;;;12.81;79.42;101757.59;7396655;19;20026;-54
2023/05/06 04:32:27;;;;;;;18.13;9.05;;;;;;;12.76;79.48;101762.38;7396165;19;20035;-50
2023/05/06 04:34:55;;;;;;;19.17;7.72;;;;;;;12.94;79.01;101766.47;7396492;19;20648;-50
2023/05/06 04:37:22;;;;;;;15.20;8.48;;;;;;;12.86;79.23;101774.09;7395602;19;20015;-52
2023/05/06 04:39:49;;;;;;;16.13;8.57;;;;;;;12.95;78.79;101777.94;7394160;19;20504;-50
2023/05/06 04:42:16;;;;;;;20.58;9.82;;;;;;;12.91;79.14;101771.97;7396791;19;20018;-53
2023/05/06 04:44:43;;;;;;;15.82;8.25;;;;;;;12.99;78.71;101771.47;7396318;19;20019;-52
2023/05/06 04:47:11;;;;;;;17.92;8.77;;;;;;;13.00;78.57;101776.66;7394922;19;20114;-53
2023/05/06 04:49:38;;;;;;;18.13;9.50;;;;;;;12.95;78.31;101778.78;7394542;19;20010;-53
2023/05/06 04:52:05;;;;;;;19.77;9.95;;;;;;;12.87;79.09;101781.97;7396061;19;20136;-52
2023/05/06 04:54:32;;;;;;;21.58;9.57;;;;;;;12.92;79.15;101781.66;7396780;19;20049;-53
2023/05/06 04:56:59;;;;;;;16.88;9.05;;;;;;;12.88;79.10;101780.16;7393552;19;20137;-50
2023/05/06 04:59:26;;;;;;;19.88;9.43;;;;;;;12.90;79.15;101772.94;7395509;19;20048;-49
2023/05/06 05:01:53;;;;;;;16.90;9.52;;;;;;;13.01;78.96;101780.16;7397172;19;20127;-49
2023/05/06 05:04:20;;;;;;;18.30;9.75;;;;;;;13.02;79.14;101792.53;7394593;19;20022;-48
2023/05/06 05:06:47;;;;;;;18.48;9.63;;;;;;;13.11;78.46;101791.91;7393203;19;20023;-51
2023/05/06 05:09:14;;;;;;;18.95;9.60;;;;;;;13.07;78.78;101785.94;7394833;19;20018;-48
2023/05/06 05:11:41;;;;;;;18.63;10.02;;;;;;;13.06;79.01;101794.88;7394503;19;20098;-53
2023/05/06 05:14:08;;;;;;;16.15;9.63;;;;;;;13.06;78.42;101796.69;7393247;19;20019;-49
2023/05/06 05:16:35;;;;;;;16.33;9.95;;;;;;;13.05;78.61;101800.28;7392787;19;20043;-49
2023/05/06 05:19:02;;;;;;;17.05;9.85;;;;;;;13.03;78.64;101802.19;7393294;19;20029;-48
2023/05/06 05:21:31;;;;;;;18.30;9.48;;;;;;;13.08;78.43;101800.06;7393164;19;20011;-48
2023/05/06 05:23:58;;;;;;;18.88;10.35;;;;;;;13.07;78.55;101801.88;7395212;19;20018;-49
2023/05/06 05:26:25;;;;;;;18.95;10.00;;;;;;;13.17;78.22;101802.13;7393002;19;20050;-51
2023/05/06 05:28:52;;;;;;;17.45;9.98;;;;;;;13.21;78.08;101806.28;7394229;19;20019;-50
2023/05/06 05:31:19;;;;;;;18.63;10.25;;;;;;;13.26;77.92;101809.50;7394984;19;20010;-50
2023/05/06 05:33:46;;;;;;;17.55;10.82;;;;;;;13.21;78.04;101806.28;7393152;19;20018;-51
2023/05/06 05:36:14;;;;;;;15.00;9.48;;;;;;;13.21;78.11;101810.75;7390885;19;20039;-51
2023/05/06 05:38:42;;;;;;;16.27;9.82;;;;;;;13.22;77.92;101809.78;7393264;19;20018;-48
2023/05/06 05:41:09;;;;;;;16.80;9.93;;;;;;;13.22;77.52;101813.28;7394991;19;20014;-50
2023/05/06 05:43:36;;;;;;;18.30;9.93;;;;;;;13.20;77.80;101819.66;7394727;19;20452;-51
2023/05/06 05:46:03;;;;;;;16.85;10.52;;;;;;;13.20;78.13;101824.97;7392688;19;20018;-49
2023/05/06 05:48:31;;;;;;;17.05;10.45;;;;;;;13.26;77.28;101820.16;7394328;19;20078;-48
2023/05/06 05:51:00;;;;;;;16.58;10.68;;;;;;;13.31;77.03;101823.34;7393202;19;20033;-49
2023/05/06 05:53:27;;;;;;;17.60;10.48;;;;;;;13.34;77.29;101817.81;7391559;19;20015;-47
2023/05/06 05:55:54;;;;;;;20.50;10.45;;;;;;;13.37;77.07;101820.28;7392985;19;20039;-50
2023/05/06 05:58:22;;;;;;;18.02;10.25;;;;;;;13.45;76.76;101818.91;7392732;19;20499;-48
2023/05/06 06:00:49;;;;;;;16.88;10.05;;;;;;;13.43;76.75;101828.78;7394289;19;20015;-49
2023/05/06 06:03:17;;;;;;;14.85;9.55;;;;;;;13.43;76.99;101828.78;7392337;19;20385;-47
2023/05/06 06:05:44;;;;;;;16.23;9.73;;;;;;;13.40;77.05;101828.03;7392444;19;20029;-48
2023/05/06 06:08:11;;;;;;;16.30;9.60;;;;;;;13.40;76.83;101827.19;7393622;19;20023;-49
2023/05/06 06:10:39;;;;;;;14.68;9.50;;;;;;;13.49;76.20;101823.03;7393686;19;20089;-51
2023/05/06 06:13:05;;;;;;;16.83;10.23;;;;;;;13.51;76.36;101829.13;7393119;19;20019;-49
2023/05/06 06:15:33;;;;;;;16.08;9.73;;;;;;;13.57;76.34;101828.69;7391240;19;20023;-49
2023/05/06 06:18:00;;;;;;;15.07;9.95;;;;;;;13.58;76.27;101830.38;7393386;19;20401;-49
2023/05/06 06:20:28;;;;;;;15.60;10.18;;;;;;;13.56;75.65;101835.81;7393209;19;20026;-50
2023/05/06 06:22:55;;;;;;;14.68;9.88;;;;;;;13.48;75.78;101840.81;7393579;19;20028;-52
2023/05/06 06:25:21;;;;;;;15.25;9.60;;;;;;;13.61;75.40;101843.47;7392210;19;20043;-52
2023/05/06 06:27:48;;;;;;;15.57;9.80;;;;;;;13.58;75.30;101844.56;7393286;19;20028;-52
2023/05/06 06:30:15;;;;;;;15.25;10.23;;;;;;;13.62;75.20;101848.72;7392376;19;20010;-52
2023/05/06 06:32:48;;;;;;;14.35;9.75;;;;;;;13.77;75.17;101846.78;7391734;19;20039;-51
2023/05/06 06:35:15;;;;;;;14.90;9.43;;;;;;;13.81;74.51;101853.63;7391789;19;20420;-52
2023/05/06 06:37:42;;;;;;;13.35;8.57;;;;;;;13.79;74.58;101850.19;7393430;19;20033;-52
2023/05/06 06:40:10;;;;;;;14.68;9.05;;;;;;;13.79;74.50;101858.19;7390123;19;20377;-52
2023/05/06 06:42:37;;;;;;;14.77;9.70;;;;;;;13.84;74.65;101857.88;7392446;19;20043;-51
2023/05/06 06:45:07;;;;;;;15.15;10.00;;;;;;;13.88;74.70;101860.19;7389432;19;20019;-52
2023/05/06 06:47:35;;;;;;;12.80;9.02;;;;;;;13.69;75.30;101858.94;7392613;19;20018;-51
2023/05/06 06:50:02;;;;;;;14.13;9.10;;;;;;;13.69;74.90;101866.91;7391771;19;20092;-52
2023/05/06 06:52:29;;;;;;;15.25;9.35;;;;;;;13.74;74.66;101870.13;7392563;19;20015;-49
2023/05/06 06:54:56;;;;;;;15.38;9.43;;;;;;;13.67;75.15;101876.84;7391500;19;20029;-52
2023/05/06 06:57:23;;;;;;;16.20;9.98;;;;;;;13.69;74.42;101870.41;7392693;19;20018;-51
2023/05/06 06:59:52;;;;;;;15.25;9.13;;;;;;;13.63;75.19;101871.72;7391563;19;20018;-49
2023/05/06 07:02:19;;;;;;;15.20;9.02;;;;;;;13.63;75.22;101873.53;7391905;19;20101;-49
2023/05/06 07:04:48;;;;;;;14.55;9.90;;;;;;;13.73;74.42;101879.91;7389678;19;20015;-52
2023/05/06 07:07:14;;;;;;;16.10;10.10;;;;;;;13.78;74.23;101868.97;7391883;19;20010;-52
2023/05/06 07:09:43;;;;;;;15.95;9.60;;;;;;;13.80;74.26;101870.53;7391514;19;20390;-51
2023/05/06 07:12:10;;;;;;;15.38;9.05;;;;;;;13.85;74.43;101870.22;7391464;19;20487;-51
2023/05/06 07:14:38;;;;;;;12.60;8.52;;;;;;;13.97;74.01;101874.69;7389711;19;20086;-51
2023/05/06 07:17:05;;;;;;;14.07;9.20;;;;;;;13.96;73.92;101875.63;7391546;19;20586;-49
2023/05/06 07:19:32;;;;;;;14.32;8.93;;;;;;;14.07;74.08;101873.06;7391190;19;20022;-50
2023/05/06 07:21:59;;;;;;;11.55;8.10;;;;;;;14.27;73.02;101876.13;7391525;19;20020;-49
2023/05/06 07:24:26;;;;;;;13.95;7.80;;;;;;;14.28;72.90;101873.38;7391206;19;20376;-50
2023/05/06 07:26:53;;;;;;;13.10;8.70;;;;;;;14.29;73.16;101882.22;7387685;19;20023;-49
2023/05/06 07:29:20;;;;;;;13.20;8.15;;;;;;;14.33;73.11;101881.03;7390984;19;20398;-50
2023/05/06 07:31:47;;;;;;;13.95;7.95;;;;;;;14.17;73.57;101885.75;7391224;19;20017;-50
2023/05/06 07:34:14;;;;;;;12.63;8.15;;;;;;;14.29;73.55;101893.72;7389846;19;20022;-52
2023/05/06 07:36:42;;;;;;;12.00;8.23;;;;;;;14.30;73.51;101895.44;7387392;19;20495;-49
2023/05/06 07:39:10;;;;;;;12.20;8.05;;;;;;;14.41;73.31;101891.16;7389999;19;20022;-51
2023/05/06 07:41:37;;;;;;;14.60;9.50;;;;;;;14.34;73.69;101901.38;7390888;19;20018;-52
2023/05/06 07:44:05;;;;;;;13.75;8.15;;;;;;;14.29;74.22;101901.72;7389359;19;20070;-51
2023/05/06 07:46:32;;;;;;;15.57;10.57;;;;;;;14.39;73.51;101910.78;7389009;19;20011;-48
2023/05/06 07:48:59;;;;;;;16.08;9.55;;;;;;;14.31;73.50;101902.47;7388698;19;20039;-50
2023/05/06 07:51:27;;;;;;;17.45;11.60;;;;;;;14.28;73.11;101902.69;7390587;19;20014;-52
2023/05/06 07:53:54;;;;;;;16.85;11.18;;;;;;;14.33;72.43;101905.88;7389478;19;20018;-52
2023/05/06 07:56:21;;;;;;;15.48;10.93;;;;;;;14.34;72.47;101904.91;7386753;19;20523;-50
2023/05/06 07:58:48;;;;;;;16.55;11.00;;;;;;;14.35;72.49;101906.63;7389808;19;20018;-51
2023/05/06 08:01:15;;;;;;;15.63;11.20;;;;;;;14.26;72.89;101911.75;7390824;19;20018;-50
2023/05/06 08:03:42;;;;;;;14.80;10.00;;;;;;;14.33;72.81;101907.69;7391192;19;20022;-51
2023/05/06 08:06:09;;;;;;;13.77;9.65;;;;;;;14.41;72.89;101905.31;7388877;19;20018;-51
2023/05/06 08:08:37;;;;;;;16.30;10.38;;;;;;;14.44;72.67;101913.09;7388547;19;20495;-48
2023/05/06 08:11:04;;;;;;;16.33;10.40;;;;;;;14.45;72.65;101909.47;7390581;19;20117;-48
2023/05/06 08:13:32;;;;;;;14.32;9.10;;;;;;;14.51;72.81;101914.41;7389649;19;20025;-52
2023/05/06 08:16:01;;;;;;;13.95;9.30;;;;;;;14.60;72.98;101915.56;7388953;19;20131;-52
2023/05/06 08:18:28;;;;;;;15.02;10.25;;;;;;;14.64;72.77;101914.38;7389268;19;20047;-51
2023/05/06 08:20:55;;;;;;;13.80;9.50;;;;;;;14.62;72.52;101917.16;7390384;19;20135;-49
2023/05/06 08:23:23;;;;;;;15.57;10.15;;;;;;;14.58;72.50;101923.69;7390705;19;20448;-52
2023/05/06 08:25:50;;;;;;;16.58;11.07;;;;;;;14.51;72.27;101926.88;7388060;19;20010;-52
2023/05/06 08:28:16;;;;;;;18.55;12.38;;;;;;;14.47;72.34;101933.38;7388828;19;20039;-50
2023/05/06 08:30:47;;;;;;;19.17;13.07;;;;;;;14.34;72.48;101931.56;7388562;19;20043;-52
2023/05/06 08:33:14;;;;;;;18.90;13.07;;;;;;;14.33;72.41;101931.66;7388576;19;20015;-53
2023/05/06 08:35:41;;;;;;;18.73;11.63;;;;;;;14.45;71.96;101927.28;7386415;19;20019;-52
2023/05/06 08:38:08;;;;;;;19.90;13.50;;;;;;;14.61;71.92;101934.13;7389879;19;20021;-50
2023/05/06 08:40:41;;;;;;;19.10;12.57;;;;;;;14.76;71.52;101926.81;7388399;19;20014;-52
2023/05/06 08:43:13;;;;;;;22.38;15.60;;;;;;;14.89;71.42;101934.78;7388137;19;20015;-51
2023/05/06 08:45:41;;;;;;;20.85;14.27;;;;;;;14.95;71.60;101936.97;7388360;19;20019;-52
2023/05/06 08:48:08;;;;;;;20.90;15.95;;;;;;;14.95;71.37;101944.13;7389872;19;20024;-53
2023/05/06 08:50:40;;;;;;;22.55;15.73;;;;;;;14.95;71.43;101944.13;7387948;19;20480;-52
2023/05/06 08:53:12;;;;;;;20.80;14.00;;;;;;;14.92;71.88;101942.56;7389528;19;20019;-49
2023/05/06 08:55:40;;;;;;;17.65;13.57;;;;;;;14.95;71.88;101939.66;7389715;19;20018;-51
2023/05/06 08:58:15;;;;;;;18.80;13.73;;;;;;;15.09;71.31;101944.84;7393967;19;20014;-49
2023/05/06 09:00:43;;;;;;;19.92;13.55;;;;;;;15.11;70.96;101948.25;7395571;19;20018;-47
2023/05/06 09:03:10;;;;;;;17.48;12.43;;;;;;;15.11;71.18;101944.75;7396828;19;20107;-49
2023/05/06 09:05:37;;;;;;;17.17;11.82;;;;;;;15.09;71.04;101950.16;7394729;19;20019;-47
2023/05/06 09:08:04;;;;;;;16.10;11.25;;;;;;;15.23;70.65;101954.50;7396286;19;20516;-48
2023/05/06 09:10:36;;;;;;;14.32;9.73;;;;;;;15.41;70.37;101946.06;7395396;19;20395;-48
2023/05/06 09:13:03;;;;;;;16.10;10.52;;;;;;;15.42;70.12;101939.78;7396561;19;20021;-48
2023/05/06 09:15:41;;;;;;;25.55;10.90;;;;;;;15.38;70.60;101938.28;7392386;19;20024;-47
2023/05/06 09:18:10;;;;;;;14.07;10.02;;;;;;;15.35;70.67;101940.22;7396442;19;20021;-52
2023/05/06 09:20:43;;;;;;;13.88;9.40;;;;;;;15.45;70.71;101945.72;7393378;19;20015;-48
2023/05/06 09:23:12;;;;;;;14.18;9.85;;;;;;;15.43;71.44;101946.81;7395717;19;20514;-50
2023/05/06 09:25:40;;;;;;;15.95;10.25;;;;;;;15.49;71.15;101947.22;7393545;19;20512;-47
2023/05/06 09:28:09;;;;;;;17.85;10.43;;;;;;;15.68;70.52;101941.38;7395764;19;20480;-49
2023/05/06 09:30:45;;;;;;;13.77;10.05;;;;;;;15.88;69.20;101949.66;7394059;19;20026;-48
2023/05/06 09:33:12;;;;;;;14.30;9.90;;;;;;;15.90;69.79;101945.91;7395307;19;20024;-48
2023/05/06 09:35:41;;;;;;;16.65;11.13;;;;;;;15.82;69.84;101949.16;7391981;19;20093;-48
2023/05/06 09:38:09;;;;;;;18.25;11.85;;;;;;;15.75;70.22;101936.38;7395458;19;20022;-47
2023/05/06 09:40:37;;;;;;;16.15;10.05;;;;;;;15.64;70.31;101937.16;7394132;19;20464;-47
2023/05/06 09:43:04;;;;;;;13.60;10.02;;;;;;;15.51;70.71;101931.91;7393443;19;20014;-50
2023/05/06 09:45:32;;;;;;;15.15;9.73;;;;;;;15.47;70.71;101929.59;7392723;19;20022;-50
2023/05/06 09:47:59;;;;;;;15.02;8.73;;;;;;;15.44;70.48;101928.00;7394786;19;20018;-51
2023/05/06 09:50:27;;;;;;;34.35;9.95;;;;;;;15.44;70.71;101932.50;7393739;19;20010;-52
2023/05/06 09:52:55;;;;;;;72.95;12.50;;;;;;;15.64;69.64;101937.16;7395424;19;20019;-52
2023/05/06 09:55:25;;;;;;;14.30;8.90;;;;;;;15.67;69.83;101934.31;7392150;19;20019;-53
2023/05/06 09:57:53;;;;;;;13.25;8.48;;;;;;;15.79;69.66;101938.69;7395032;19;20014;-52
2023/05/06 10:00:26;;;;;;;13.93;7.78;;;;;;;16.02;68.44;101944.94;7393882;19;20014;-48
2023/05/06 10:02:54;;;;;;;13.98;8.57;;;;;;;16.14;67.80;101940.50;7395077;19;20014;-48
2023/05/06 10:05:23;;;;;;;12.32;7.95;;;;;;;16.39;67.44;101935.88;7393916;19;20025;-48
2023/05/06 10:07:52;;;;;;;15.75;8.82;;;;;;;16.66;67.02;101938.16;7391246;19;20512;-47
2023/05/06 10:10:20;;;;;;;14.25;7.90;;;;;;;16.60;66.79;101930.59;7394122;19;20026;-48
2023/05/06 10:12:51;;;;;;;14.88;9.00;;;;;;;16.55;66.77;101925.63;7392851;19;20034;-49
2023/05/06 10:15:18;;;;;;;14.52;8.52;;;;;;;16.67;66.93;101932.66;7390038;19;20030;-52
2023/05/06 10:17:47;;;;;;;14.02;8.57;;;;;;;16.56;67.06;101935.38;7393411;19;20019;-49
2023/05/06 10:20:15;;;;;;;11.55;8.00;;;;;;;16.41;67.25;101939.25;7393316;19;20026;-53
2023/05/06 10:22:42;;;;;;;12.68;7.47;;;;;;;16.27;67.77;101933.19;7393620;19;20037;-52
2023/05/06 10:25:22;;;;;;;14.70;7.72;;;;;;;16.28;67.56;101934.03;7392660;19;20045;-51
2023/05/06 10:27:50;;;;;;;11.80;7.40;;;;;;;16.08;68.20;101927.59;7392647;19;20014;-49
2023/05/06 10:30:18;;;;;;;13.48;8.18;;;;;;;16.03;68.24;101927.13;7392934;19;20443;-50
2023/05/06 10:32:45;;;;;;;13.88;8.30;;;;;;;15.89;68.49;101936.19;7393380;19;20082;-48
2023/05/06 10:35:35;;;;;;;13.55;8.25;;;;;;;15.87;68.74;101934.59;7391269;19;20412;-48
2023/05/06 10:38:07;;;;;;;12.45;7.50;;;;;;;15.97;68.54;101938.25;7391604;19;20030;-47
2023/05/06 10:40:34;;;;;;;13.23;7.70;;;;;;;16.07;68.54;101931.25;7390370;19;20014;-48
2023/05/06 10:43:37;;;;;;;13.23;7.75;;;;;;;16.29;67.84;101927.72;7390838;19;20019;-48
2023/05/06 10:46:09;;;;;;;11.93;7.57;;;;;;;16.35;67.00;101924.56;7388943;19;20038;-48
2023/05/06 10:48:39;;;;;;;12.27;7.80;;;;;;;16.46;66.61;101926.38;7391510;19;20022;-47
2023/05/06 10:51:18;;;;;;;12.02;7.45;;;;;;;16.59;65.95;101919.06;7393026;19;20086;-49
2023/05/06 10:54:01;;;;;;;11.90;7.43;;;;;;;16.54;66.94;101911.41;7391990;19;20015;-51
2023/05/06 10:56:37;;;;;;;12.65;7.75;;;;;;;16.58;67.40;101920.06;7390529;19;20022;-50
2023/05/06 10:59:08;;;;;;;11.65;7.63;;;;;;;16.68;67.34;101914.81;7390750;19;20018;-48
2023/05/06 11:01:39;;;;;;;14.77;8.15;;;;;;;16.73;67.36;101916.16;7392521;19;20476;-49
2023/05/06 11:04:06;;;;;;;13.70;8.07;;;;;;;16.77;66.46;101914.09;7392125;19;20014;-48
2023/05/06 11:06:37;;;;;;;12.93;7.78;;;;;;;16.80;66.20;101916.53;7390777;19;20014;-50
2023/05/06 11:09:05;;;;;;;11.73;7.63;;;;;;;16.79;65.71;101914.84;7391142;19;20021;-49
2023/05/06 11:11:45;;;;;;;13.00;8.25;;;;;;;16.83;65.28;101913.59;7391384;19;20022;-52
2023/05/06 11:14:14;;;;;;;11.63;7.65;;;;;;;16.73;65.81;101918.84;7391712;19;20011;-47
2023/05/06 11:16:49;;;;;;;10.38;6.65;;;;;;;16.67;65.83;101918.44;7390399;19;20021;-50
2023/05/06 11:19:22;;;;;;;12.35;6.80;;;;;;;16.72;65.51;101922.47;7387009;19;20043;-47
2023/05/06 11:21:50;;;;;;;12.65;7.47;;;;;;;16.74;65.55;101920.53;7391912;19;20022;-50